Time;durP1;ratioP1;P1;durP2;ratioP2;P2;SDS_P1;SDS_P2;PMS_P1;PMS_P2;Temp;Humidity;BMP_temperature;BMP_pressure;BME280_temperature;BME280_humidity;BME280_pressure;Samples;Min_cycle;Max_cycle;Signal;HPM_P1;HPM_P2
2024/03/11 00:09:04;;;;;;;42.88;26.38;;;9.10;1.00;;;;;;20670926;28;20054;-48
2024/03/11 00:19:05;;;;;;;43.97;25.98;;;9.10;1.00;;;;;;20660263;28;20413;-49
2024/03/11 00:29:05;;;;;;;42.42;25.38;;;9.10;1.00;;;;;;20662230;28;20053;-47
2024/03/11 00:39:08;;;;;;;42.65;24.98;;;9.00;1.00;;;;;;20669084;28;20030;-48
2024/03/11 00:49:09;;;;;;;43.22;25.40;;;8.90;1.00;;;;;;20666574;28;20105;-48
2024/03/11 00:59:10;;;;;;;40.67;24.87;;;8.90;1.00;;;;;;20668556;28;20042;-49
2024/03/11 01:09:11;;;;;;;42.05;25.08;;;8.80;1.00;;;;;;20663847;28;20046;-47
2024/03/11 01:19:12;;;;;;;41.22;25.02;;;8.70;1.00;;;;;;20658120;28;20468;-48
2024/03/11 01:29:16;;;;;;;44.85;26.08;;;8.60;1.00;;;;;;20652732;28;20367;-48
2024/03/11 01:39:25;;;;;;;44.08;25.38;;;8.50;1.00;;;;;;20654442;28;20190;-48
2024/03/11 01:49:26;;;;;;;45.00;26.25;;;8.50;1.00;;;;;;20653663;28;20049;-47
2024/03/11 01:59:27;;;;;;;40.60;25.40;;;8.40;1.70;;;;;;20655470;28;20050;-48
2024/03/11 02:09:28;;;;;;;45.50;26.17;;;8.30;5.50;;;;;;20651075;28;20066;-48
2024/03/11 02:19:28;;;;;;;47.83;27.30;;;8.20;3.30;;;;;;20667474;28;20077;-48
2024/03/11 02:29:29;;;;;;;45.22;26.08;;;8.20;5.80;;;;;;20669888;28;20073;-48
2024/03/11 02:39:29;;;;;;;46.78;26.95;;;8.20;8.60;;;;;;20674283;28;20136;-48
2024/03/11 02:49:32;;;;;;;43.38;25.25;;;8.30;11.30;;;;;;20670505;28;20050;-48
2024/03/11 02:59:33;;;;;;;42.70;25.73;;;8.30;11.90;;;;;;20672022;28;20038;-48
2024/03/11 03:09:36;;;;;;;45.75;26.77;;;8.30;13.20;;;;;;20669656;28;20041;-48
2024/03/11 03:19:37;;;;;;;44.72;26.13;;;8.30;14.30;;;;;;20650559;28;20052;-48
2024/03/11 03:29:40;;;;;;;43.05;25.05;;;8.40;14.70;;;;;;20661651;28;20042;-48
2024/03/11 03:39:41;;;;;;;42.53;25.83;;;8.30;14.00;;;;;;20662581;28;20056;-48
2024/03/11 03:49:42;;;;;;;45.13;27.38;;;8.30;17.60;;;;;;20664987;28;20084;-47
2024/03/11 03:59:42;;;;;;;41.50;25.27;;;8.20;19.80;;;;;;20666265;28;20161;-48
2024/03/11 04:09:43;;;;;;;43.15;25.52;;;8.20;20.90;;;;;;20660551;28;20097;-48
2024/03/11 04:19:44;;;;;;;42.35;25.60;;;8.20;22.10;;;;;;20662966;28;20132;-48
2024/03/11 04:29:44;;;;;;;44.27;27.00;;;8.20;24.40;;;;;;20667972;28;20042;-48
2024/03/11 04:39:45;;;;;;;47.92;27.73;;;8.20;26.70;;;;;;20664631;28;21003;-48
2024/03/11 04:49:46;;;;;;;45.38;26.45;;;8.10;27.50;;;;;;20660760;28;20382;-48
2024/03/11 04:59:47;;;;;;;44.57;26.70;;;8.10;31.50;;;;;;20658220;28;20504;-48
2024/03/11 05:09:47;;;;;;;45.43;27.07;;;8.10;37.10;;;;;;20659400;28;20082;-48
2024/03/11 05:19:48;;;;;;;46.20;28.13;;;8.00;45.50;;;;;;20660462;28;20100;-49
2024/03/11 05:29:49;;;;;;;48.75;28.85;;;8.10;54.00;;;;;;20659363;28;20457;-47
2024/03/11 05:39:49;;;;;;;48.03;29.58;;;8.10;64.30;;;;;;20654588;28;20389;-47
2024/03/11 05:49:50;;;;;;;51.88;28.67;;;8.10;68.80;;;;;;20650462;28;20070;-50
2024/03/11 05:59:52;;;;;;;48.17;29.50;;;8.00;80.00;;;;;;20658660;28;20030;-48
2024/03/11 06:09:52;;;;;;;48.65;28.42;;;8.00;85.20;;;;;;20650811;28;20771;-49
2024/03/11 06:19:53;;;;;;;51.55;28.88;;;7.90;89.80;;;;;;20663050;28;20378;-48
2024/03/11 06:29:54;;;;;;;49.90;29.50;;;7.70;96.20;;;;;;20666133;28;20034;-49
2024/03/11 06:39:57;;;;;;;52.15;30.15;;;7.50;99.90;;;;;;20664425;28;20034;-48
2024/03/11 06:49:58;;;;;;;56.08;30.17;;;7.40;99.90;;;;;;20666124;28;20034;-48
2024/03/11 06:59:59;;;;;;;55.58;31.33;;;7.40;99.90;;;;;;20671454;28;20053;-48
2024/03/11 07:10:00;;;;;;;59.20;31.98;;;7.40;99.90;;;;;;20678315;28;20501;-48
2024/03/11 07:20:00;;;;;;;60.35;32.10;;;7.40;99.90;;;;;;20675018;28;20515;-48
2024/03/11 07:30:01;;;;;;;59.53;32.92;;;7.40;99.90;;;;;;20677536;28;20046;-48
2024/03/11 07:40:06;;;;;;;60.20;33.65;;;7.40;99.90;;;;;;20677992;28;20338;-48
2024/03/11 07:50:09;;;;;;;64.45;35.33;;;7.40;99.90;;;;;;20673777;28;20042;-48
2024/03/11 08:00:10;;;;;;;60.03;32.38;;;7.40;99.90;;;;;;20672192;28;20405;-49
2024/03/11 08:10:12;;;;;;;67.95;35.90;;;7.50;99.90;;;;;;20674859;28;20049;-48
2024/03/11 08:20:17;;;;;;;64.95;35.55;;;7.40;99.90;;;;;;20672456;28;20061;-47
2024/03/11 08:30:19;;;;;;;62.28;32.60;;;7.50;99.90;;;;;;20668575;28;20244;-50
2024/03/11 08:40:24;;;;;;;63.35;34.08;;;7.40;99.90;;;;;;20673801;28;20070;-47
2024/03/11 08:50:24;;;;;;;71.80;36.03;;;7.50;99.90;;;;;;20670670;28;20507;-49
2024/03/11 09:00:27;;;;;;;70.50;36.72;;;7.60;99.90;;;;;;20656793;28;20078;-48
2024/03/11 09:10:28;;;;;;;77.20;38.22;;;7.60;99.90;;;;;;20669458;28;20041;-49
2024/03/11 09:20:31;;;;;;;74.95;37.03;;;7.60;99.90;;;;;;20665556;28;20046;-47
2024/03/11 09:30:33;;;;;;;76.93;38.38;;;7.60;99.90;;;;;;20662405;28;20262;-48
2024/03/11 09:40:34;;;;;;;73.63;37.28;;;7.50;99.90;;;;;;20667530;28;20042;-52
2024/03/11 09:50:37;;;;;;;69.87;37.07;;;7.60;99.90;;;;;;20661930;28;20049;-48
2024/03/11 10:01:07;;;;;;;70.20;35.80;;;7.60;99.90;;;;;;20662594;28;20453;-48
2024/03/11 10:11:10;;;;;;;71.38;35.35;;;7.70;99.90;;;;;;20664446;28;20046;-48
2024/03/11 10:21:13;;;;;;;67.22;35.78;;;7.70;99.90;;;;;;20662837;28;20536;-48
2024/03/11 10:31:27;;;;;;;70.60;36.60;;;7.60;99.90;;;;;;20664532;28;20038;-48
2024/03/11 10:41:28;;;;;;;61.47;31.92;;;7.70;99.90;;;;;;20681019;28;20046;-48
2024/03/11 10:51:30;;;;;;;68.70;32.65;;;7.60;99.90;;;;;;20684011;28;20064;-48
2024/03/11 11:01:33;;;;;;;61.83;32.08;;;7.70;99.90;;;;;;20678737;28;20041;-48
2024/03/11 11:11:35;;;;;;;62.40;31.92;;;7.70;99.90;;;;;;20689471;28;20473;-49
2024/03/11 11:21:36;;;;;;;56.97;29.77;;;7.70;99.90;;;;;;20680197;28;20046;-48
2024/03/11 11:31:38;;;;;;;58.78;32.13;;;7.80;99.90;;;;;;20673802;28;20041;-49
2024/03/11 11:41:43;;;;;;;55.03;29.55;;;8.00;99.90;;;;;;20673985;28;20038;-49
2024/03/11 11:51:51;;;;;;;60.33;30.40;;;7.90;99.90;;;;;;20674089;28;20057;-48
2024/03/11 12:01:52;;;;;;;55.60;30.48;;;7.80;99.90;;;;;;20673424;28;20101;-49
2024/03/11 12:11:57;;;;;;;54.38;29.65;;;7.80;99.90;;;;;;20668979;28;20054;-48
2024/03/11 12:21:58;;;;;;;56.58;29.27;;;7.80;99.90;;;;;;20672084;28;20061;-48
2024/03/11 12:32:04;;;;;;;60.13;31.20;;;7.60;99.90;;;;;;20666961;28;20034;-48
2024/03/11 12:42:08;;;;;;;51.80;28.17;;;7.60;99.90;;;;;;20672071;28;20077;-48
2024/03/11 12:52:09;;;;;;;57.28;29.58;;;7.60;99.90;;;;;;20666767;28;20034;-52
2024/03/11 13:02:16;;;;;;;52.30;27.13;;;7.40;99.90;;;;;;20668635;28;20049;-48
2024/03/11 13:12:18;;;;;;;54.97;29.50;;;7.40;99.90;;;;;;20668461;28;20034;-50
2024/03/11 13:22:19;;;;;;;54.05;28.10;;;7.40;99.90;;;;;;20664754;28;20100;-48
2024/03/11 13:32:21;;;;;;;53.25;29.30;;;7.40;99.90;;;;;;20663667;28;20034;-48
2024/03/11 13:42:23;;;;;;;50.67;27.33;;;7.50;99.90;;;;;;20656000;28;20049;-48
2024/03/11 13:52:25;;;;;;;56.92;28.63;;;7.50;99.90;;;;;;20661082;28;20117;-48
2024/03/11 14:02:25;;;;;;;54.08;28.60;;;7.50;99.90;;;;;;20668461;28;20129;-48
2024/03/11 14:12:26;;;;;;;55.22;28.88;;;7.50;99.90;;;;;;20678618;28;20038;-48
2024/03/11 14:22:27;;;;;;;54.70;30.05;;;7.40;99.90;;;;;;20682054;28;20360;-48
2024/03/11 14:32:29;;;;;;;55.78;29.95;;;7.50;99.90;;;;;;20680712;28;20489;-48
2024/03/11 14:42:30;;;;;;;52.17;28.35;;;7.40;99.90;;;;;;20683122;28;20046;-48
2024/03/11 14:52:30;;;;;;;54.72;28.60;;;7.50;99.90;;;;;;20680004;28;20041;-48
2024/03/11 15:02:31;;;;;;;58.28;30.65;;;7.40;99.90;;;;;;20682490;28;20046;-50
2024/03/11 15:12:34;;;;;;;58.90;29.92;;;7.50;99.90;;;;;;20662748;28;20308;-48
2024/03/11 15:22:36;;;;;;;50.55;27.30;;;7.50;99.90;;;;;;20679165;28;20050;-48
2024/03/11 15:32:36;;;;;;;54.65;28.80;;;7.40;99.90;;;;;;20678602;28;20036;-48
2024/03/11 15:42:37;;;;;;;54.58;28.33;;;7.40;99.90;;;;;;20679495;28;20038;-48
2024/03/11 15:52:37;;;;;;;59.75;30.17;;;7.50;99.90;;;;;;20671145;28;20049;-49
2024/03/11 16:02:38;;;;;;;60.00;32.25;;;7.50;99.90;;;;;;20663414;28;20073;-53
2024/03/11 16:12:40;;;;;;;55.93;30.70;;;7.50;99.90;;;;;;20666209;28;20096;-48
2024/03/11 16:22:40;;;;;;;54.80;27.98;;;7.50;99.90;;;;;;20617044;28;20918;-48
2024/03/11 16:32:42;;;;;;;52.35;29.55;;;7.50;99.90;;;;;;20657791;28;20030;-48
2024/03/11 16:42:47;;;;;;;55.47;28.92;;;7.40;99.90;;;;;;20660269;28;20068;-48
2024/03/11 16:52:50;;;;;;;64.50;32.30;;;7.40;99.90;;;;;;20655598;28;20046;-48
2024/03/11 17:02:53;;;;;;;61.83;32.55;;;7.50;99.90;;;;;;20655877;28;20062;-48
2024/03/11 17:12:54;;;;;;;61.65;31.92;;;7.40;99.90;;;;;;20664705;28;20037;-49
2024/03/11 17:22:55;;;;;;;58.60;32.17;;;7.40;99.90;;;;;;20667967;28;20047;-48
2024/03/11 17:32:58;;;;;;;61.60;31.65;;;7.40;99.90;;;;;;20660425;28;20520;-48
2024/03/11 17:42:59;;;;;;;59.05;30.58;;;7.40;99.90;;;;;;20658859;28;20618;-48
2024/03/11 17:53:01;;;;;;;51.03;28.40;;;7.40;99.90;;;;;;20653639;28;20041;-48
2024/03/11 18:03:06;;;;;;;57.65;30.40;;;7.30;99.90;;;;;;20651656;28;20740;-48
2024/03/11 18:13:10;;;;;;;63.25;33.90;;;7.30;99.90;;;;;;20652677;28;20045;-48
2024/03/11 18:23:12;;;;;;;59.00;31.98;;;7.40;99.90;;;;;;20648884;28;20069;-48
2024/03/11 18:33:13;;;;;;;66.13;34.85;;;7.40;99.90;;;;;;20654226;28;20042;-48
2024/03/11 18:43:14;;;;;;;63.20;33.53;;;7.40;99.90;;;;;;20644199;28;20132;-48
2024/03/11 18:53:15;;;;;;;66.57;35.83;;;7.40;99.90;;;;;;20650138;28;20042;-48
2024/03/11 19:03:15;;;;;;;68.50;35.50;;;7.40;99.90;;;;;;20660268;28;20053;-48
2024/03/11 19:13:17;;;;;;;68.00;36.03;;;7.50;99.90;;;;;;20663167;28;20475;-48
2024/03/11 19:23:18;;;;;;;65.70;34.42;;;7.40;99.90;;;;;;20670033;28;20057;-48
2024/03/11 19:33:21;;;;;;;67.57;36.03;;;7.40;99.90;;;;;;20670717;28;20044;-48
2024/03/11 19:43:36;;;;;;;65.57;34.75;;;7.50;99.90;;;;;;20668017;28;20395;-48
2024/03/11 19:53:59;;;;;;;67.80;34.70;;;7.50;99.90;;;;;;20656467;28;20089;-48
2024/03/11 20:04:24;;;;;;;70.75;38.25;;;7.60;99.90;;;;;;20661867;28;20410;-48
2024/03/11 20:14:52;;;;;;;69.60;36.13;;;7.60;99.90;;;;;;20668010;28;20041;-49
2024/03/11 20:25:31;;;;;;;79.45;41.15;;;7.60;99.90;;;;;;20664944;28;20042;-48
2024/03/11 20:35:33;;;;;;;67.32;37.17;;;7.60;99.90;;;;;;20652355;28;20125;-48
2024/03/11 20:45:34;;;;;;;81.82;40.22;;;7.70;99.90;;;;;;20654371;28;20038;-48
2024/03/11 20:55:35;;;;;;;77.03;38.75;;;7.70;99.90;;;;;;20667078;28;20405;-48
2024/03/11 21:05:36;;;;;;;83.43;42.58;;;7.70;99.90;;;;;;20665892;28;20093;-48
2024/03/11 21:15:39;;;;;;;79.82;39.28;;;7.70;99.90;;;;;;20664753;28;20052;-48
2024/03/11 21:26:14;;;;;;;99.68;42.30;;;7.80;99.90;;;;;;20661941;28;20503;-48
2024/03/11 21:36:03;;;;;;;79.10;39.00;;;7.70;99.90;;;;;;20653166;28;20085;-48
2024/03/11 21:46:04;;;;;;;74.00;37.20;;;7.70;99.90;;;;;;20647895;28;20050;-48
2024/03/11 21:56:06;;;;;;;72.17;36.33;;;7.70;99.90;;;;;;20652450;28;20045;-48
2024/03/11 22:06:07;;;;;;;82.28;38.42;;;7.70;99.90;;;;;;20651895;28;21455;-48
2024/03/11 22:16:09;;;;;;;75.93;37.33;;;7.70;99.90;;;;;;20649495;28;20517;-48
2024/03/11 22:26:10;;;;;;;79.22;37.30;;;7.60;99.90;;;;;;20657929;28;20466;-48
2024/03/11 22:36:10;;;;;;;71.65;35.08;;;7.60;99.90;;;;;;20668230;28;20042;-48
2024/03/11 22:46:11;;;;;;;86.97;39.80;;;7.60;99.90;;;;;;20675425;28;20038;-49
2024/03/11 22:56:12;;;;;;;77.00;38.30;;;7.70;99.90;;;;;;20674964;28;20034;-48
2024/03/11 23:06:18;;;;;;;74.35;36.35;;;7.60;99.90;;;;;;20668648;28;20100;-48
2024/03/11 23:16:20;;;;;;;81.63;38.97;;;7.70;99.90;;;;;;20661695;28;20041;-48
2024/03/11 23:26:22;;;;;;;68.07;35.03;;;7.60;99.90;;;;;;20658768;28;20136;-48
2024/03/11 23:36:23;;;;;;;79.10;37.60;;;7.50;99.90;;;;;;20658252;28;20069;-48
2024/03/11 23:46:25;;;;;;;74.25;35.53;;;7.60;99.90;;;;;;20659670;28;20051;-48
2024/03/11 23:56:30;;;;;;;74.03;35.17;;;7.60;99.90;;;;;;20663355;28;20542;-48
